sensor_id;sensor_type;location;lat;lon;timestamp;temperature;humidity
55648;DHT22;45266;48.756;9.246;2022-11-15T00:00:09;5.00;99.90
55648;DHT22;45266;48.756;9.246;2022-11-15T00:01:16;5.10;99.90
55648;DHT22;45266;48.756;9.246;2022-11-15T00:02:19;5.10;99.90
55648;DHT22;45266;48.756;9.246;2022-11-15T00:03:22;5.10;99.90
55648;DHT22;45266;48.756;9.246;2022-11-15T00:04:24;5.20;99.90
55648;DHT22;45266;48.756;9.246;2022-11-15T00:05:26;5.20;99.90
55648;DHT22;45266;48.756;9.246;2022-11-15T00:06:28;5.20;99.90
55648;DHT22;45266;48.756;9.246;2022-11-15T00:07:30;5.20;99.90
55648;DHT22;45266;48.756;9.246;2022-11-15T00:08:51;5.30;99.90
55648;DHT22;45266;48.756;9.246;2022-11-15T00:09:53;5.30;99.90
55648;DHT22;45266;48.756;9.246;2022-11-15T00:10:57;5.30;99.90
55648;DHT22;45266;48.756;9.246;2022-11-15T00:11:59;5.40;99.90
55648;DHT22;45266;48.756;9.246;2022-11-15T00:13:07;5.40;99.90
55648;DHT22;45266;48.756;9.246;2022-11-15T00:14:09;5.40;99.90
55648;DHT22;45266;48.756;9.246;2022-11-15T00:15:11;5.40;99.90
55648;DHT22;45266;48.756;9.246;2022-11-15T00:16:13;5.40;99.90
55648;DHT22;45266;48.756;9.246;2022-11-15T00:17:14;5.40;99.90
55648;DHT22;45266;48.756;9.246;2022-11-15T00:18:17;5.40;99.90
55648;DHT22;45266;48.756;9.246;2022-11-15T00:19:18;5.50;99.90
55648;DHT22;45266;48.756;9.246;2022-11-15T00:20:20;5.50;99.90
55648;DHT22;45266;48.756;9.246;2022-11-15T00:21:22;5.50;99.90
55648;DHT22;45266;48.756;9.246;2022-11-15T00:22:24;5.50;99.90
55648;DHT22;45266;48.756;9.246;2022-11-15T00:23:25;5.50;99.90
55648;DHT22;45266;48.756;9.246;2022-11-15T00:24:27;5.60;99.90
55648;DHT22;45266;48.756;9.246;2022-11-15T00:25:29;5.60;99.90
55648;DHT22;45266;48.756;9.246;2022-11-15T00:26:31;5.50;99.90
55648;DHT22;45266;48.756;9.246;2022-11-15T00:27:33;5.60;99.90
55648;DHT22;45266;48.756;9.246;2022-11-15T00:28:34;5.50;99.90
55648;DHT22;45266;48.756;9.246;2022-11-15T00:29:36;5.60;99.90
55648;DHT22;45266;48.756;9.246;2022-11-15T00:30:40;5.60;99.90
55648;DHT22;45266;48.756;9.246;2022-11-15T00:31:41;5.60;99.90
55648;DHT22;45266;48.756;9.246;2022-11-15T00:32:43;5.60;99.90
55648;DHT22;45266;48.756;9.246;2022-11-15T00:33:45;5.60;99.90
55648;DHT22;45266;48.756;9.246;2022-11-15T00:34:46;5.60;99.90
55648;DHT22;45266;48.756;9.246;2022-11-15T00:35:48;5.60;99.90
55648;DHT22;45266;48.756;9.246;2022-11-15T00:36:50;5.60;99.90
55648;DHT22;45266;48.756;9.246;2022-11-15T00:37:52;5.60;99.90
55648;DHT22;45266;48.756;9.246;2022-11-15T00:38:54;5.70;99.90
55648;DHT22;45266;48.756;9.246;2022-11-15T00:39:56;5.70;99.90
55648;DHT22;45266;48.756;9.246;2022-11-15T00:40:57;5.60;99.90
55648;DHT22;45266;48.756;9.246;2022-11-15T00:41:59;5.60;99.90
55648;DHT22;45266;48.756;9.246;2022-11-15T00:43:01;5.60;99.90
55648;DHT22;45266;48.756;9.246;2022-11-15T00:44:02;5.60;99.90
55648;DHT22;45266;48.756;9.246;2022-11-15T00:45:05;5.60;99.90
55648;DHT22;45266;48.756;9.246;2022-11-15T00:46:06;5.60;99.90
55648;DHT22;45266;48.756;9.246;2022-11-15T00:47:09;5.60;99.90
55648;DHT22;45266;48.756;9.246;2022-11-15T00:48:11;5.60;99.90
55648;DHT22;45266;48.756;9.246;2022-11-15T00:49:14;5.60;99.90
55648;DHT22;45266;48.756;9.246;2022-11-15T00:50:15;5.60;99.90
55648;DHT22;45266;48.756;9.246;2022-11-15T00:51:17;5.60;99.90
55648;DHT22;45266;48.756;9.246;2022-11-15T00:52:19;5.50;99.90
55648;DHT22;45266;48.756;9.246;2022-11-15T00:53:21;5.50;99.90
55648;DHT22;45266;48.756;9.246;2022-11-15T00:54:22;5.50;99.90
55648;DHT22;45266;48.756;9.246;2022-11-15T00:55:24;5.50;99.90
55648;DHT22;45266;48.756;9.246;2022-11-15T00:56:26;5.50;99.90
55648;DHT22;45266;48.756;9.246;2022-11-15T00:57:27;5.50;99.90
55648;DHT22;45266;48.756;9.246;2022-11-15T00:58:29;5.40;99.90
55648;DHT22;45266;48.756;9.246;2022-11-15T00:59:31;5.40;99.90
55648;DHT22;45266;48.756;9.246;2022-11-15T01:00:33;5.40;99.90
55648;DHT22;45266;48.756;9.246;2022-11-15T01:01:35;5.40;99.90
55648;DHT22;45266;48.756;9.246;2022-11-15T01:02:36;5.40;99.90
55648;DHT22;45266;48.756;9.246;2022-11-15T01:03:39;5.40;99.90
55648;DHT22;45266;48.756;9.246;2022-11-15T01:04:42;5.40;99.90
55648;DHT22;45266;48.756;9.246;2022-11-15T01:05:43;5.40;99.90
55648;DHT22;45266;48.756;9.246;2022-11-15T01:06:45;5.40;99.90
55648;DHT22;45266;48.756;9.246;2022-11-15T01:07:47;5.30;99.90
55648;DHT22;45266;48.756;9.246;2022-11-15T01:08:52;5.30;99.90
55648;DHT22;45266;48.756;9.246;2022-11-15T01:09:54;5.30;99.90
55648;DHT22;45266;48.756;9.246;2022-11-15T01:11:04;5.30;99.90
55648;DHT22;45266;48.756;9.246;2022-11-15T01:12:06;5.30;99.90
55648;DHT22;45266;48.756;9.246;2022-11-15T01:13:08;5.30;99.90
55648;DHT22;45266;48.756;9.246;2022-11-15T01:14:10;5.30;99.90
55648;DHT22;45266;48.756;9.246;2022-11-15T01:15:12;5.30;99.90
55648;DHT22;45266;48.756;9.246;2022-11-15T01:16:16;5.30;99.90
55648;DHT22;45266;48.756;9.246;2022-11-15T01:17:21;5.30;99.90
55648;DHT22;45266;48.756;9.246;2022-11-15T01:18:22;5.30;99.90
55648;DHT22;45266;48.756;9.246;2022-11-15T01:19:24;5.30;99.90
55648;DHT22;45266;48.756;9.246;2022-11-15T01:20:26;5.20;99.90
55648;DHT22;45266;48.756;9.246;2022-11-15T01:21:28;5.20;99.90
55648;DHT22;45266;48.756;9.246;2022-11-15T01:22:29;5.20;99.90
55648;DHT22;45266;48.756;9.246;2022-11-15T01:23:31;5.20;99.90
55648;DHT22;45266;48.756;9.246;2022-11-15T01:24:33;5.20;99.90
55648;DHT22;45266;48.756;9.246;2022-11-15T01:25:35;5.10;99.90
55648;DHT22;45266;48.756;9.246;2022-11-15T01:26:37;5.10;99.90
55648;DHT22;45266;48.756;9.246;2022-11-15T01:27:39;5.10;99.90
55648;DHT22;45266;48.756;9.246;2022-11-15T01:28:41;5.10;99.90
55648;DHT22;45266;48.756;9.246;2022-11-15T01:29:43;5.10;99.90
55648;DHT22;45266;48.756;9.246;2022-11-15T01:30:45;5.00;99.90
55648;DHT22;45266;48.756;9.246;2022-11-15T01:31:47;5.00;99.90
55648;DHT22;45266;48.756;9.246;2022-11-15T01:32:48;5.00;99.90
55648;DHT22;45266;48.756;9.246;2022-11-15T01:33:50;4.90;99.90
55648;DHT22;45266;48.756;9.246;2022-11-15T01:34:52;4.90;99.90
55648;DHT22;45266;48.756;9.246;2022-11-15T01:35:54;4.80;99.90
55648;DHT22;45266;48.756;9.246;2022-11-15T01:36:56;4.80;99.90
55648;DHT22;45266;48.756;9.246;2022-11-15T01:37:57;4.80;99.90
55648;DHT22;45266;48.756;9.246;2022-11-15T01:38:59;4.80;99.90
55648;DHT22;45266;48.756;9.246;2022-11-15T01:40:01;4.90;99.90
55648;DHT22;45266;48.756;9.246;2022-11-15T01:41:03;4.80;99.90
55648;DHT22;45266;48.756;9.246;2022-11-15T01:42:05;4.90;99.90
55648;DHT22;45266;48.756;9.246;2022-11-15T01:43:27;4.90;99.90
55648;DHT22;45266;48.756;9.246;2022-11-15T01:45:46;4.90;99.90
55648;DHT22;45266;48.756;9.246;2022-11-15T01:46:51;4.90;99.90
55648;DHT22;45266;48.756;9.246;2022-11-15T01:47:53;4.80;99.90
55648;DHT22;45266;48.756;9.246;2022-11-15T01:48:57;4.90;99.90
55648;DHT22;45266;48.756;9.246;2022-11-15T01:50:08;4.90;99.90
55648;DHT22;45266;48.756;9.246;2022-11-15T01:51:11;4.90;99.90
55648;DHT22;45266;48.756;9.246;2022-11-15T01:52:17;4.80;99.90
55648;DHT22;45266;48.756;9.246;2022-11-15T01:53:21;4.80;99.90
55648;DHT22;45266;48.756;9.246;2022-11-15T01:54:26;4.80;99.90
55648;DHT22;45266;48.756;9.246;2022-11-15T01:55:28;4.80;99.90
55648;DHT22;45266;48.756;9.246;2022-11-15T01:56:32;4.80;99.90
55648;DHT22;45266;48.756;9.246;2022-11-15T01:57:38;4.80;99.90
55648;DHT22;45266;48.756;9.246;2022-11-15T01:58:41;4.70;99.90
55648;DHT22;45266;48.756;9.246;2022-11-15T01:59:45;4.70;99.90
55648;DHT22;45266;48.756;9.246;2022-11-15T02:00:47;4.70;99.90
55648;DHT22;45266;48.756;9.246;2022-11-15T02:01:49;4.70;99.90
55648;DHT22;45266;48.756;9.246;2022-11-15T02:02:51;4.70;99.90
55648;DHT22;45266;48.756;9.246;2022-11-15T02:03:59;4.70;99.90
55648;DHT22;45266;48.756;9.246;2022-11-15T02:05:03;4.70;99.90
55648;DHT22;45266;48.756;9.246;2022-11-15T02:06:05;4.70;99.90
55648;DHT22;45266;48.756;9.246;2022-11-15T02:07:08;4.70;99.90
55648;DHT22;45266;48.756;9.246;2022-11-15T02:08:11;4.70;99.90
55648;DHT22;45266;48.756;9.246;2022-11-15T02:09:21;4.70;99.90
55648;DHT22;45266;48.756;9.246;2022-11-15T02:10:24;4.70;99.90
55648;DHT22;45266;48.756;9.246;2022-11-15T02:11:26;4.60;99.90
55648;DHT22;45266;48.756;9.246;2022-11-15T02:12:28;4.60;99.90
55648;DHT22;45266;48.756;9.246;2022-11-15T02:13:32;4.60;99.90
55648;DHT22;45266;48.756;9.246;2022-11-15T02:14:37;4.60;99.90
55648;DHT22;45266;48.756;9.246;2022-11-15T02:16:34;4.60;99.90
55648;DHT22;45266;48.756;9.246;2022-11-15T02:18:38;4.60;99.90
55648;DHT22;45266;48.756;9.246;2022-11-15T02:29:19;4.50;99.90
55648;DHT22;45266;48.756;9.246;2022-11-15T02:30:44;4.50;99.90
55648;DHT22;45266;48.756;9.246;2022-11-15T02:32:18;4.50;99.90
55648;DHT22;45266;48.756;9.246;2022-11-15T02:33:32;4.50;99.90
55648;DHT22;45266;48.756;9.246;2022-11-15T02:36:02;4.60;99.90
55648;DHT22;45266;48.756;9.246;2022-11-15T02:37:15;4.60;99.90
55648;DHT22;45266;48.756;9.246;2022-11-15T02:38:33;4.50;99.90
55648;DHT22;45266;48.756;9.246;2022-11-15T02:39:51;4.50;99.90
55648;DHT22;45266;48.756;9.246;2022-11-15T02:41:02;4.50;99.90
55648;DHT22;45266;48.756;9.246;2022-11-15T02:42:17;4.50;99.90
55648;DHT22;45266;48.756;9.246;2022-11-15T02:43:46;4.50;99.90
55648;DHT22;45266;48.756;9.246;2022-11-15T02:45:01;4.50;99.90
55648;DHT22;45266;48.756;9.246;2022-11-15T02:46:09;4.50;99.90
55648;DHT22;45266;48.756;9.246;2022-11-15T02:47:16;4.50;99.90
55648;DHT22;45266;48.756;9.246;2022-11-15T02:48:18;4.50;99.90
55648;DHT22;45266;48.756;9.246;2022-11-15T02:49:22;4.50;99.90
55648;DHT22;45266;48.756;9.246;2022-11-15T02:50:28;4.40;99.90
55648;DHT22;45266;48.756;9.246;2022-11-15T02:51:30;4.40;99.90
55648;DHT22;45266;48.756;9.246;2022-11-15T02:52:33;4.40;99.90
55648;DHT22;45266;48.756;9.246;2022-11-15T02:53:35;4.50;99.90
55648;DHT22;45266;48.756;9.246;2022-11-15T02:54:37;4.40;99.90
55648;DHT22;45266;48.756;9.246;2022-11-15T02:55:44;4.40;99.90
55648;DHT22;45266;48.756;9.246;2022-11-15T02:56:47;4.40;99.90
55648;DHT22;45266;48.756;9.246;2022-11-15T02:59:47;4.40;99.90
55648;DHT22;45266;48.756;9.246;2022-11-15T03:04:58;4.40;99.90
55648;DHT22;45266;48.756;9.246;2022-11-15T03:06:22;4.40;99.90
55648;DHT22;45266;48.756;9.246;2022-11-15T03:07:57;4.40;99.90
55648;DHT22;45266;48.756;9.246;2022-11-15T03:09:10;4.40;99.90
55648;DHT22;45266;48.756;9.246;2022-11-15T03:11:47;4.40;99.90
55648;DHT22;45266;48.756;9.246;2022-11-15T03:13:02;4.40;99.90
55648;DHT22;45266;48.756;9.246;2022-11-15T03:16:02;4.40;99.90
55648;DHT22;45266;48.756;9.246;2022-11-15T03:18:19;4.40;99.90
55648;DHT22;45266;48.756;9.246;2022-11-15T03:20:26;4.40;99.90
55648;DHT22;45266;48.756;9.246;2022-11-15T03:21:29;4.40;99.90
55648;DHT22;45266;48.756;9.246;2022-11-15T03:22:38;4.40;99.90
55648;DHT22;45266;48.756;9.246;2022-11-15T03:23:41;4.30;99.90
55648;DHT22;45266;48.756;9.246;2022-11-15T03:24:47;4.30;99.90
55648;DHT22;45266;48.756;9.246;2022-11-15T03:25:51;4.30;99.90
55648;DHT22;45266;48.756;9.246;2022-11-15T03:26:54;4.30;99.90
55648;DHT22;45266;48.756;9.246;2022-11-15T03:27:59;4.30;99.90
55648;DHT22;45266;48.756;9.246;2022-11-15T03:29:15;4.30;99.90
55648;DHT22;45266;48.756;9.246;2022-11-15T03:30:19;4.20;99.90
55648;DHT22;45266;48.756;9.246;2022-11-15T03:31:22;4.30;99.90
55648;DHT22;45266;48.756;9.246;2022-11-15T03:32:54;4.30;99.90
55648;DHT22;45266;48.756;9.246;2022-11-15T03:33:58;4.30;99.90
55648;DHT22;45266;48.756;9.246;2022-11-15T03:35:05;4.30;99.90
55648;DHT22;45266;48.756;9.246;2022-11-15T03:36:08;4.20;99.90
55648;DHT22;45266;48.756;9.246;2022-11-15T03:37:12;4.20;99.90
55648;DHT22;45266;48.756;9.246;2022-11-15T03:38:22;4.20;99.90
55648;DHT22;45266;48.756;9.246;2022-11-15T03:39:26;4.20;99.90
55648;DHT22;45266;48.756;9.246;2022-11-15T03:40:45;4.20;99.90
55648;DHT22;45266;48.756;9.246;2022-11-15T03:43:04;4.20;99.90
55648;DHT22;45266;48.756;9.246;2022-11-15T03:45:27;4.10;99.90
55648;DHT22;45266;48.756;9.246;2022-11-15T03:48:14;4.10;99.90
55648;DHT22;45266;48.756;9.246;2022-11-15T03:49:22;4.20;99.90
55648;DHT22;45266;48.756;9.246;2022-11-15T03:50:26;4.20;99.90
55648;DHT22;45266;48.756;9.246;2022-11-15T03:51:29;4.20;99.90
55648;DHT22;45266;48.756;9.246;2022-11-15T03:52:33;4.10;99.90
55648;DHT22;45266;48.756;9.246;2022-11-15T03:53:35;4.20;99.90
55648;DHT22;45266;48.756;9.246;2022-11-15T03:54:55;4.20;99.90
55648;DHT22;45266;48.756;9.246;2022-11-15T03:55:57;4.20;99.90
55648;DHT22;45266;48.756;9.246;2022-11-15T03:56:59;4.20;99.90
55648;DHT22;45266;48.756;9.246;2022-11-15T03:58:01;4.10;99.90
55648;DHT22;45266;48.756;9.246;2022-11-15T03:59:03;4.10;99.90
55648;DHT22;45266;48.756;9.246;2022-11-15T04:00:05;4.10;99.90
55648;DHT22;45266;48.756;9.246;2022-11-15T04:01:07;4.10;99.90
55648;DHT22;45266;48.756;9.246;2022-11-15T04:02:09;4.00;99.90
55648;DHT22;45266;48.756;9.246;2022-11-15T04:03:11;4.00;99.90
55648;DHT22;45266;48.756;9.246;2022-11-15T04:04:13;4.00;99.90
55648;DHT22;45266;48.756;9.246;2022-11-15T04:05:15;4.00;99.90
55648;DHT22;45266;48.756;9.246;2022-11-15T04:06:17;4.10;99.90
55648;DHT22;45266;48.756;9.246;2022-11-15T04:07:19;4.10;99.90
55648;DHT22;45266;48.756;9.246;2022-11-15T04:08:20;4.10;99.90
55648;DHT22;45266;48.756;9.246;2022-11-15T04:09:22;4.10;99.90
55648;DHT22;45266;48.756;9.246;2022-11-15T04:10:24;4.00;99.90
55648;DHT22;45266;48.756;9.246;2022-11-15T04:11:26;4.00;99.90
55648;DHT22;45266;48.756;9.246;2022-11-15T04:12:28;4.00;99.90
55648;DHT22;45266;48.756;9.246;2022-11-15T04:13:33;4.00;99.90
55648;DHT22;45266;48.756;9.246;2022-11-15T04:14:35;4.00;99.90
55648;DHT22;45266;48.756;9.246;2022-11-15T04:15:37;4.00;99.90
55648;DHT22;45266;48.756;9.246;2022-11-15T04:16:38;4.00;99.90
55648;DHT22;45266;48.756;9.246;2022-11-15T04:17:52;4.00;99.90
55648;DHT22;45266;48.756;9.246;2022-11-15T04:18:54;3.90;99.90
55648;DHT22;45266;48.756;9.246;2022-11-15T04:20:33;4.00;99.90
55648;DHT22;45266;48.756;9.246;2022-11-15T04:21:54;4.00;99.90
55648;DHT22;45266;48.756;9.246;2022-11-15T04:23:15;4.00;99.90
55648;DHT22;45266;48.756;9.246;2022-11-15T04:24:46;4.00;99.90
55648;DHT22;45266;48.756;9.246;2022-11-15T04:25:50;3.90;99.90
55648;DHT22;45266;48.756;9.246;2022-11-15T04:26:52;3.90;99.90
55648;DHT22;45266;48.756;9.246;2022-11-15T04:27:54;3.80;99.90
55648;DHT22;45266;48.756;9.246;2022-11-15T04:28:56;3.80;99.90
55648;DHT22;45266;48.756;9.246;2022-11-15T04:30:16;3.80;99.90
55648;DHT22;45266;48.756;9.246;2022-11-15T04:31:18;3.80;99.90
55648;DHT22;45266;48.756;9.246;2022-11-15T04:32:20;3.80;99.90
55648;DHT22;45266;48.756;9.246;2022-11-15T04:33:22;3.80;99.90
55648;DHT22;45266;48.756;9.246;2022-11-15T04:34:24;3.90;99.90
55648;DHT22;45266;48.756;9.246;2022-11-15T04:35:25;3.90;99.90
55648;DHT22;45266;48.756;9.246;2022-11-15T04:36:27;3.90;99.90
55648;DHT22;45266;48.756;9.246;2022-11-15T04:37:48;3.90;99.90
55648;DHT22;45266;48.756;9.246;2022-11-15T04:38:50;3.80;99.90
55648;DHT22;45266;48.756;9.246;2022-11-15T04:39:51;3.80;99.90
55648;DHT22;45266;48.756;9.246;2022-11-15T04:40:53;3.80;99.90
55648;DHT22;45266;48.756;9.246;2022-11-15T04:41:55;3.80;99.90
55648;DHT22;45266;48.756;9.246;2022-11-15T04:42:57;3.80;99.90
55648;DHT22;45266;48.756;9.246;2022-11-15T04:44:04;3.80;99.90
55648;DHT22;45266;48.756;9.246;2022-11-15T04:45:06;3.80;99.90
55648;DHT22;45266;48.756;9.246;2022-11-15T04:46:08;3.80;99.90
55648;DHT22;45266;48.756;9.246;2022-11-15T04:47:10;3.80;99.90
55648;DHT22;45266;48.756;9.246;2022-11-15T04:48:11;3.80;99.90
55648;DHT22;45266;48.756;9.246;2022-11-15T04:49:13;3.90;99.90
55648;DHT22;45266;48.756;9.246;2022-11-15T04:50:15;3.90;99.90
55648;DHT22;45266;48.756;9.246;2022-11-15T04:51:17;3.90;99.90
55648;DHT22;45266;48.756;9.246;2022-11-15T04:52:19;3.80;99.90
55648;DHT22;45266;48.756;9.246;2022-11-15T04:53:21;3.90;99.90
55648;DHT22;45266;48.756;9.246;2022-11-15T04:54:23;3.90;99.90
55648;DHT22;45266;48.756;9.246;2022-11-15T04:55:24;3.80;99.90
55648;DHT22;45266;48.756;9.246;2022-11-15T04:56:26;3.80;99.90
55648;DHT22;45266;48.756;9.246;2022-11-15T04:57:28;3.80;99.90
55648;DHT22;45266;48.756;9.246;2022-11-15T04:58:30;3.80;99.90
55648;DHT22;45266;48.756;9.246;2022-11-15T04:59:31;3.80;99.90
55648;DHT22;45266;48.756;9.246;2022-11-15T05:00:33;3.80;99.90
55648;DHT22;45266;48.756;9.246;2022-11-15T05:01:35;3.80;99.90
55648;DHT22;45266;48.756;9.246;2022-11-15T05:02:44;3.80;99.90
55648;DHT22;45266;48.756;9.246;2022-11-15T05:04:04;3.80;99.90
55648;DHT22;45266;48.756;9.246;2022-11-15T05:05:21;3.80;99.90
55648;DHT22;45266;48.756;9.246;2022-11-15T05:06:23;3.80;99.90
55648;DHT22;45266;48.756;9.246;2022-11-15T05:07:24;3.70;99.90
55648;DHT22;45266;48.756;9.246;2022-11-15T05:08:26;3.80;99.90
55648;DHT22;45266;48.756;9.246;2022-11-15T05:09:28;3.80;99.90
55648;DHT22;45266;48.756;9.246;2022-11-15T05:10:30;3.80;99.90
55648;DHT22;45266;48.756;9.246;2022-11-15T05:11:32;3.80;99.90
55648;DHT22;45266;48.756;9.246;2022-11-15T05:12:34;3.80;99.90
55648;DHT22;45266;48.756;9.246;2022-11-15T05:13:35;3.80;99.90
55648;DHT22;45266;48.756;9.246;2022-11-15T05:14:37;3.80;99.90
55648;DHT22;45266;48.756;9.246;2022-11-15T05:15:39;3.90;99.90
55648;DHT22;45266;48.756;9.246;2022-11-15T05:16:41;3.80;99.90
55648;DHT22;45266;48.756;9.246;2022-11-15T05:17:43;3.90;99.90
55648;DHT22;45266;48.756;9.246;2022-11-15T05:18:44;3.90;99.90
55648;DHT22;45266;48.756;9.246;2022-11-15T05:19:46;3.90;99.90
55648;DHT22;45266;48.756;9.246;2022-11-15T05:20:48;3.90;99.90
55648;DHT22;45266;48.756;9.246;2022-11-15T05:21:49;3.90;99.90
55648;DHT22;45266;48.756;9.246;2022-11-15T05:22:53;3.90;99.90
55648;DHT22;45266;48.756;9.246;2022-11-15T05:23:55;3.90;99.90
55648;DHT22;45266;48.756;9.246;2022-11-15T05:24:57;3.90;99.90
55648;DHT22;45266;48.756;9.246;2022-11-15T05:26:00;3.90;99.90
55648;DHT22;45266;48.756;9.246;2022-11-15T05:27:09;3.90;99.90
55648;DHT22;45266;48.756;9.246;2022-11-15T05:28:11;3.90;99.90
55648;DHT22;45266;48.756;9.246;2022-11-15T05:29:12;3.90;99.90
55648;DHT22;45266;48.756;9.246;2022-11-15T05:30:15;3.90;99.90
55648;DHT22;45266;48.756;9.246;2022-11-15T05:31:16;3.90;99.90
55648;DHT22;45266;48.756;9.246;2022-11-15T05:32:18;3.90;99.90
55648;DHT22;45266;48.756;9.246;2022-11-15T05:33:20;3.90;99.90
55648;DHT22;45266;48.756;9.246;2022-11-15T05:34:22;3.80;99.90
55648;DHT22;45266;48.756;9.246;2022-11-15T05:35:31;3.80;99.90
55648;DHT22;45266;48.756;9.246;2022-11-15T05:36:41;3.90;99.90
55648;DHT22;45266;48.756;9.246;2022-11-15T05:37:43;3.90;99.90
55648;DHT22;45266;48.756;9.246;2022-11-15T05:38:46;3.80;99.90
55648;DHT22;45266;48.756;9.246;2022-11-15T05:39:48;3.90;99.90
55648;DHT22;45266;48.756;9.246;2022-11-15T05:40:50;3.80;99.90
55648;DHT22;45266;48.756;9.246;2022-11-15T05:41:59;3.80;99.90
55648;DHT22;45266;48.756;9.246;2022-11-15T05:43:03;3.80;99.90
55648;DHT22;45266;48.756;9.246;2022-11-15T05:44:07;3.80;99.90
55648;DHT22;45266;48.756;9.246;2022-11-15T05:45:11;3.70;99.90
55648;DHT22;45266;48.756;9.246;2022-11-15T05:46:13;3.80;99.90
55648;DHT22;45266;48.756;9.246;2022-11-15T05:47:21;3.80;99.90
55648;DHT22;45266;48.756;9.246;2022-11-15T05:48:23;3.80;99.90
55648;DHT22;45266;48.756;9.246;2022-11-15T05:49:29;3.80;99.90
55648;DHT22;45266;48.756;9.246;2022-11-15T05:50:32;3.80;99.90
55648;DHT22;45266;48.756;9.246;2022-11-15T05:51:34;3.80;99.90
55648;DHT22;45266;48.756;9.246;2022-11-15T05:52:37;3.80;99.90
55648;DHT22;45266;48.756;9.246;2022-11-15T05:53:38;3.80;99.90
55648;DHT22;45266;48.756;9.246;2022-11-15T05:54:41;3.70;99.90
55648;DHT22;45266;48.756;9.246;2022-11-15T05:55:42;3.80;99.90
55648;DHT22;45266;48.756;9.246;2022-11-15T05:56:44;3.80;99.90
55648;DHT22;45266;48.756;9.246;2022-11-15T05:57:46;3.80;99.90
55648;DHT22;45266;48.756;9.246;2022-11-15T05:58:48;3.80;99.90
55648;DHT22;45266;48.756;9.246;2022-11-15T05:59:50;3.70;99.90
55648;DHT22;45266;48.756;9.246;2022-11-15T06:00:52;3.70;99.90
55648;DHT22;45266;48.756;9.246;2022-11-15T06:01:55;3.70;99.90
55648;DHT22;45266;48.756;9.246;2022-11-15T06:02:57;3.70;99.90
55648;DHT22;45266;48.756;9.246;2022-11-15T06:03:59;3.70;99.90
55648;DHT22;45266;48.756;9.246;2022-11-15T06:05:01;3.70;99.90
55648;DHT22;45266;48.756;9.246;2022-11-15T06:06:03;3.70;99.90
55648;DHT22;45266;48.756;9.246;2022-11-15T06:07:04;3.60;99.90
55648;DHT22;45266;48.756;9.246;2022-11-15T06:08:06;3.70;99.90
55648;DHT22;45266;48.756;9.246;2022-11-15T06:09:08;3.60;99.90
55648;DHT22;45266;48.756;9.246;2022-11-15T06:10:10;3.60;99.90
55648;DHT22;45266;48.756;9.246;2022-11-15T06:11:11;3.60;99.90
55648;DHT22;45266;48.756;9.246;2022-11-15T06:12:13;3.60;99.90
55648;DHT22;45266;48.756;9.246;2022-11-15T06:13:15;3.60;99.90
55648;DHT22;45266;48.756;9.246;2022-11-15T06:14:17;3.70;99.90
55648;DHT22;45266;48.756;9.246;2022-11-15T06:15:18;3.70;99.90
55648;DHT22;45266;48.756;9.246;2022-11-15T06:16:20;3.60;99.90
55648;DHT22;45266;48.756;9.246;2022-11-15T06:17:22;3.60;99.90
55648;DHT22;45266;48.756;9.246;2022-11-15T06:18:23;3.70;99.90
55648;DHT22;45266;48.756;9.246;2022-11-15T06:19:25;3.70;99.90
55648;DHT22;45266;48.756;9.246;2022-11-15T06:20:28;3.70;99.90
55648;DHT22;45266;48.756;9.246;2022-11-15T06:21:30;3.70;99.90
55648;DHT22;45266;48.756;9.246;2022-11-15T06:22:32;3.70;99.90
55648;DHT22;45266;48.756;9.246;2022-11-15T06:23:34;3.70;99.90
55648;DHT22;45266;48.756;9.246;2022-11-15T06:24:36;3.70;99.90
55648;DHT22;45266;48.756;9.246;2022-11-15T06:25:38;3.70;99.90
55648;DHT22;45266;48.756;9.246;2022-11-15T06:26:39;3.70;99.90
55648;DHT22;45266;48.756;9.246;2022-11-15T06:27:41;3.70;99.90
55648;DHT22;45266;48.756;9.246;2022-11-15T06:28:43;3.70;99.90
55648;DHT22;45266;48.756;9.246;2022-11-15T06:29:44;3.70;99.90
55648;DHT22;45266;48.756;9.246;2022-11-15T06:30:46;3.70;99.90
55648;DHT22;45266;48.756;9.246;2022-11-15T06:31:53;3.70;99.90
55648;DHT22;45266;48.756;9.246;2022-11-15T06:33:03;3.70;99.90
55648;DHT22;45266;48.756;9.246;2022-11-15T06:34:05;3.70;99.90
55648;DHT22;45266;48.756;9.246;2022-11-15T06:35:07;3.70;99.90
55648;DHT22;45266;48.756;9.246;2022-11-15T06:36:11;3.70;99.90
55648;DHT22;45266;48.756;9.246;2022-11-15T06:37:18;3.70;99.90
55648;DHT22;45266;48.756;9.246;2022-11-15T06:38:20;3.70;99.90
55648;DHT22;45266;48.756;9.246;2022-11-15T06:39:21;3.70;99.90
55648;DHT22;45266;48.756;9.246;2022-11-15T06:40:23;3.70;99.90
55648;DHT22;45266;48.756;9.246;2022-11-15T06:41:25;3.70;99.90
55648;DHT22;45266;48.756;9.246;2022-11-15T06:42:26;3.70;99.90
55648;DHT22;45266;48.756;9.246;2022-11-15T06:43:28;3.70;99.90
55648;DHT22;45266;48.756;9.246;2022-11-15T06:44:30;3.70;99.90
55648;DHT22;45266;48.756;9.246;2022-11-15T06:45:32;3.70;99.90
55648;DHT22;45266;48.756;9.246;2022-11-15T06:46:35;3.80;99.90
55648;DHT22;45266;48.756;9.246;2022-11-15T06:47:46;3.80;99.90
55648;DHT22;45266;48.756;9.246;2022-11-15T06:48:51;3.80;99.90
55648;DHT22;45266;48.756;9.246;2022-11-15T06:49:53;3.80;99.90
55648;DHT22;45266;48.756;9.246;2022-11-15T06:50:56;3.70;99.90
55648;DHT22;45266;48.756;9.246;2022-11-15T06:51:58;3.70;99.90
55648;DHT22;45266;48.756;9.246;2022-11-15T06:53:01;3.70;99.90
55648;DHT22;45266;48.756;9.246;2022-11-15T06:54:03;3.70;99.90
55648;DHT22;45266;48.756;9.246;2022-11-15T06:55:05;3.70;99.90
55648;DHT22;45266;48.756;9.246;2022-11-15T06:56:07;3.70;99.90
55648;DHT22;45266;48.756;9.246;2022-11-15T06:57:10;3.70;99.90
55648;DHT22;45266;48.756;9.246;2022-11-15T06:58:13;3.70;99.90
55648;DHT22;45266;48.756;9.246;2022-11-15T06:59:14;3.60;99.90
55648;DHT22;45266;48.756;9.246;2022-11-15T07:00:18;3.70;99.90
55648;DHT22;45266;48.756;9.246;2022-11-15T07:01:20;3.70;99.90
55648;DHT22;45266;48.756;9.246;2022-11-15T07:02:22;3.70;99.90
55648;DHT22;45266;48.756;9.246;2022-11-15T07:03:24;3.70;99.90
55648;DHT22;45266;48.756;9.246;2022-11-15T07:04:26;3.70;99.90
55648;DHT22;45266;48.756;9.246;2022-11-15T07:05:27;3.70;99.90
55648;DHT22;45266;48.756;9.246;2022-11-15T07:06:29;3.70;99.90
55648;DHT22;45266;48.756;9.246;2022-11-15T07:07:31;3.70;99.90
55648;DHT22;45266;48.756;9.246;2022-11-15T07:08:33;3.80;99.90
55648;DHT22;45266;48.756;9.246;2022-11-15T07:09:35;3.80;99.90
55648;DHT22;45266;48.756;9.246;2022-11-15T07:10:36;3.80;99.90
55648;DHT22;45266;48.756;9.246;2022-11-15T07:11:38;3.80;99.90
55648;DHT22;45266;48.756;9.246;2022-11-15T07:12:40;3.80;99.90
55648;DHT22;45266;48.756;9.246;2022-11-15T07:13:42;3.80;99.90
55648;DHT22;45266;48.756;9.246;2022-11-15T07:14:43;3.90;99.90
55648;DHT22;45266;48.756;9.246;2022-11-15T07:15:45;3.90;99.90
55648;DHT22;45266;48.756;9.246;2022-11-15T07:16:47;3.90;99.90
55648;DHT22;45266;48.756;9.246;2022-11-15T07:17:49;3.90;99.90
55648;DHT22;45266;48.756;9.246;2022-11-15T07:18:51;3.90;99.90
55648;DHT22;45266;48.756;9.246;2022-11-15T07:19:52;4.00;99.90
55648;DHT22;45266;48.756;9.246;2022-11-15T07:20:54;4.00;99.90